VTBDVDSV

Guest
Details From VTBD - Bangkok Don Mueang Intl
To VDSV - SIHANUKVILLE
Flight Number -
Tags generated
Created
Modified
Stats Distance 270 nm / 499 km
Max Altitude 33,000 ft / 10,058 m
Waypoints 4
Social Downloads 1
Likes 0
Share VATSIM

Download

Looking for another format? Having issues loading an existing format? Contact us
Advertisement - Login to hide

Notes

Basic altitude profile: - Ascent Rate: 2500ft/min - Ascent Speed: 250kts - Cruise Altitude: 15000ft - Cruise Speed: 220kts - Descent Rate: 1500ft/min - Descent Speed: 250kts Options: - Use NATs: yes - Use PACOTS: yes - Use low airways: yes - Use high airways: yes

Route

VTBD RYN R334 KK VDSV

ID Type Via Altitude Latitude Longitude Leg Dist Tot Dist Heading (true) Name
O VTBD APT - 0 ft / 0 m 13.91260˚ 100.60680˚ - 0 nm - Bangkok Don Mueang Intl
RYN VOR - 33,000 ft / 10,058 m 12.78008˚ 101.67825˚ 92 nm 92 nm 137° / 137° RAYONG VOR-DME
KK NDB R334 (AWY-HI) 15,500 ft / 4,724 m 11.61686˚ 102.99644˚ 104 nm 196 nm 132° / 132° KOH KONG NDB
O VDSV APT - 0 ft / 0 m 10.57917˚ 103.63683˚ 72 nm 269 nm 149° / 149° SIHANUKVILLE

Altitude Profile

Advertisement - Login to hide

Weather


0- 5 10 15 20 25 30 35+ Temperature / ° C

Clouds and Precipitation
Forecast for 2018-05-21 18:00 UTC. Updated 2 hours ago

Ground ~20,000 ft ~40,000 ft Winds

VTBD

Details ICAO VTBD (DMK)
Name Bangkok Don Mueang Intl
Region Thailand
Timezone Asia/Bangkok (UTC+7.0)
Stats Elevation 9 ft / 3 m (AMSL)
Location 13.912597° 100.606799°
Runways 2
Magnetic Variation 0.579° W

METAR

VTBD 211830Z 13003KT 9999 FEW020 SCT100 27/25 Q1008 NOSIG

Decode

TAF

TAF VTBD 211700Z 2118/2224 10005KT 9999 FEW020 BECMG 2202/2204 19008KT TEMPO 2205/2210 23012KT 6000 -TSRA FEW018CB SCT030 BECMG 2218/2220 12005KT

Decode

Departure Runways

ID Width Length Bearing (true) Bearing (mag) Surface Threshold Offset Overrun Length
03L 197 ft / 60 m 12,186 ft / 3,714 m 28.55° 29.13° Asphalt 0 ft / 0 m 492 ft / 150 m
03R 148 ft / 45 m 11,520 ft / 3,511 m 28.50° 29.08° Asphalt 0 ft / 0 m 348 ft / 106 m
21L 148 ft / 45 m 11,520 ft / 3,511 m 208.50° 209.08° Asphalt 1,145 ft / 349 m 180 ft / 55 m
21R 197 ft / 60 m 12,186 ft / 3,714 m 208.55° 209.13° Asphalt 0 ft / 0 m 492 ft / 150 m

VDSV

Details ICAO VDSV (KOS)
Name SIHANUKVILLE
Region Cambodia
Timezone Asia/Phnom_Penh (UTC+7.0)
Stats Elevation 33 ft / 10 m (AMSL)
Location 10.579172° 103.636827°
Runways 1
Magnetic Variation 0.394° W

METAR

VDSV 211830Z VRB01KT 9000 FEW015 26/25 Q1008

Decode

TAF

TAF VDSV 211700Z 2118/2212 17005KT 8000 SCT015 SCT040 TEMPO 2119/2123 SCT015 FEW017CB SCT040

Decode

Destination Runways

ID Width Length Bearing (true) Bearing (mag) Surface Threshold Offset Overrun Length
03 112 ft / 34 m 4,268 ft / 1,301 m 27.47° 27.86° Asphalt 0 ft / 0 m 0 ft / 0 m
21 112 ft / 34 m 4,268 ft / 1,301 m 207.47° 207.86° Asphalt 0 ft / 0 m 0 ft / 0 m